Time;durP1;ratioP1;P1;durP2;ratioP2;P2;SDS_P1;SDS_P2;PMS_P1;PMS_P2;Temp;Humidity;BMP_temperature;BMP_pressure;BME280_temperature;BME280_humidity;BME280_pressure;Samples;Min_cycle;Max_cycle;Signal;HPM_P1;HPM_P2
2022/01/19 00:00:38;;;;;;;43.37;24.60;;;3.40;99.90;;;;;;5076653;28;20196;-61
2022/01/19 00:03:04;;;;;;;42.83;24.93;;;3.40;99.90;;;;;;5059143;28;20250;-61
2022/01/19 00:05:30;;;;;;;41.03;26.37;;;3.30;99.90;;;;;;5074694;28;20257;-61
2022/01/19 00:07:55;;;;;;;45.13;25.67;;;3.30;99.90;;;;;;5091697;28;20576;-61
2022/01/19 00:10:27;;;;;;;44.90;25.53;;;3.40;99.90;;;;;;5074946;28;20209;-61
2022/01/19 00:12:55;;;;;;;42.53;25.47;;;3.30;99.90;;;;;;5074984;28;20284;-61
2022/01/19 00:15:22;;;;;;;46.20;24.77;;;3.30;99.90;;;;;;5074527;28;20185;-61
2022/01/19 00:17:48;;;;;;;42.33;25.20;;;3.20;99.90;;;;;;5067751;28;20820;-59
2022/01/19 00:20:14;;;;;;;40.37;24.33;;;3.30;99.90;;;;;;5088534;28;20189;-60
2022/01/19 00:22:40;;;;;;;47.93;25.07;;;3.30;99.90;;;;;;5055591;28;20190;-59
2022/01/19 00:25:07;;;;;;;41.30;23.30;;;3.30;99.90;;;;;;5055910;28;20184;-59
2022/01/19 00:27:33;;;;;;;38.73;23.37;;;3.20;99.90;;;;;;5092478;28;20663;-60
2022/01/19 00:29:59;;;;;;;40.93;24.60;;;3.20;99.90;;;;;;5093524;28;20718;-61
2022/01/19 00:32:25;;;;;;;45.67;24.63;;;3.20;99.90;;;;;;5093657;28;20193;-58
2022/01/19 00:34:52;;;;;;;41.23;26.00;;;3.20;99.90;;;;;;5093377;28;20589;-65
2022/01/19 00:37:17;;;;;;;48.87;25.37;;;3.20;99.90;;;;;;5094095;28;20185;-59
2022/01/19 00:39:43;;;;;;;44.60;22.53;;;3.10;99.90;;;;;;5057283;28;20196;-60
2022/01/19 00:42:09;;;;;;;39.93;24.70;;;3.10;99.90;;;;;;5072725;28;20242;-61
2022/01/19 00:44:34;;;;;;;42.77;25.27;;;3.10;99.90;;;;;;5093618;28;20185;-60
2022/01/19 00:47:00;;;;;;;38.97;23.27;;;3.00;99.90;;;;;;5093130;28;20184;-59
2022/01/19 00:49:26;;;;;;;43.30;25.43;;;3.00;99.90;;;;;;5082373;28;20197;-60
2022/01/19 00:51:52;;;;;;;48.13;25.63;;;3.10;99.90;;;;;;5083135;28;20224;-60
2022/01/19 00:54:17;;;;;;;43.03;25.20;;;3.00;99.90;;;;;;5073980;28;20638;-60
2022/01/19 00:56:43;;;;;;;44.43;24.03;;;3.00;99.90;;;;;;5051507;28;20188;-59
2022/01/19 00:59:09;;;;;;;40.73;27.10;;;3.00;99.90;;;;;;5085382;28;20193;-59
2022/01/19 01:01:34;;;;;;;45.73;23.60;;;2.90;99.90;;;;;;5061918;28;20189;-60
2022/01/19 01:04:00;;;;;;;42.33;24.30;;;2.90;99.90;;;;;;5084116;28;20181;-59
2022/01/19 01:06:26;;;;;;;43.03;24.63;;;2.90;99.90;;;;;;5091476;28;20189;-60
2022/01/19 01:08:51;;;;;;;48.83;25.87;;;2.90;99.90;;;;;;5074464;28;20176;-60
2022/01/19 01:11:17;;;;;;;46.70;25.00;;;2.90;99.90;;;;;;5085583;28;20221;-59
2022/01/19 01:16:35;;;;;;;51.17;26.30;;;2.90;99.90;;;;;;5076943;28;20234;-59
2022/01/19 01:19:02;;;;;;;44.70;24.00;;;2.90;99.90;;;;;;5091911;28;20185;-59
2022/01/19 01:21:28;;;;;;;45.63;24.83;;;2.90;99.90;;;;;;5093593;28;20648;-59
2022/01/19 01:23:54;;;;;;;44.43;24.03;;;2.80;99.90;;;;;;5056321;28;20196;-60
2022/01/19 01:26:19;;;;;;;45.10;23.17;;;2.90;99.90;;;;;;5082740;28;20673;-60
2022/01/19 01:28:45;;;;;;;41.40;25.37;;;2.80;99.90;;;;;;5083524;28;20264;-59
2022/01/19 01:31:11;;;;;;;42.93;24.83;;;2.80;99.90;;;;;;5075963;28;20292;-59
2022/01/19 01:33:38;;;;;;;35.83;24.00;;;2.80;99.90;;;;;;5072781;28;20189;-59
2022/01/19 01:36:05;;;;;;;48.80;24.90;;;2.70;99.90;;;;;;5073669;28;20239;-60
2022/01/19 01:38:30;;;;;;;36.50;23.33;;;2.70;99.90;;;;;;5084572;28;20189;-60
2022/01/19 01:40:56;;;;;;;43.03;24.70;;;2.70;99.90;;;;;;5086073;28;20703;-59
2022/01/19 01:43:22;;;;;;;46.67;23.63;;;2.70;99.90;;;;;;5073676;28;20256;-60
2022/01/19 01:45:53;;;;;;;43.67;25.67;;;2.60;99.90;;;;;;5057550;28;20185;-60
2022/01/19 01:48:22;;;;;;;39.23;22.30;;;2.60;99.90;;;;;;5058544;28;20330;-60
2022/01/19 01:53:35;;;;;;;39.07;21.47;;;2.60;99.90;;;;;;5081563;28;20204;-61
2022/01/19 01:56:05;;;;;;;38.40;22.80;;;2.70;99.90;;;;;;5063715;28;20192;-60
2022/01/19 01:58:34;;;;;;;40.80;22.37;;;2.60;99.90;;;;;;5090992;28;20250;-59
2022/01/19 02:01:00;;;;;;;37.57;23.33;;;2.60;99.90;;;;;;5092243;28;20180;-59
2022/01/19 02:03:27;;;;;;;35.37;21.63;;;2.50;99.90;;;;;;5075633;28;20670;-68
2022/01/19 02:08:44;;;;;;;36.60;20.93;;;2.60;99.90;;;;;;5084961;28;20204;-60
2022/01/19 02:21:44;;;;;;;39.23;21.83;;;2.50;99.90;;;;;;5076132;28;20203;-60
2022/01/19 02:24:14;;;;;;;41.03;22.63;;;2.50;99.90;;;;;;5087810;28;20273;-59
2022/01/19 02:42:53;;;;;;;46.00;23.40;;;2.50;99.90;;;;;;5075917;28;20189;-60
2022/01/19 02:50:31;;;;;;;45.23;21.47;;;2.40;99.90;;;;;;5080716;28;20255;-60
2022/01/19 02:52:57;;;;;;;42.23;21.73;;;2.40;99.90;;;;;;5095832;28;20242;-60
2022/01/19 02:55:23;;;;;;;37.30;20.87;;;2.40;99.90;;;;;;5093832;28;20629;-60
2022/01/19 02:57:49;;;;;;;49.20;24.33;;;2.40;99.90;;;;;;5084573;28;20254;-60
2022/01/19 03:08:47;;;;;;;46.83;23.67;;;3.00;99.90;;;;;;5076110;28;20246;-60
2022/01/19 03:11:18;;;;;;;47.90;26.50;;;3.30;99.90;;;;;;5060603;28;20308;-60
2022/01/19 03:13:46;;;;;;;55.63;25.60;;;3.70;99.90;;;;;;5076248;28;20189;-60
2022/01/19 03:16:13;;;;;;;49.10;27.03;;;3.70;99.90;;;;;;5062941;28;20593;-60
2022/01/19 03:18:39;;;;;;;57.67;28.40;;;3.60;99.90;;;;;;5062442;28;20271;-63
2022/01/19 03:21:06;;;;;;;49.50;27.27;;;3.80;99.90;;;;;;5083113;28;20250;-59
2022/01/19 03:23:32;;;;;;;64.57;29.20;;;3.70;99.90;;;;;;5067335;28;20661;-60
2022/01/19 03:26:06;;;;;;;67.13;28.77;;;3.70;99.90;;;;;;5076959;28;20196;-61
2022/01/19 03:28:32;;;;;;;54.40;27.87;;;3.80;99.90;;;;;;5077427;28;20651;-60
2022/01/19 03:30:58;;;;;;;56.10;28.33;;;3.90;99.90;;;;;;5094636;28;20669;-60
2022/01/19 03:33:24;;;;;;;46.10;25.53;;;4.20;99.90;;;;;;5094824;28;20283;-60
2022/01/19 03:35:51;;;;;;;59.10;28.50;;;4.40;99.90;;;;;;5093622;28;20288;-59
2022/01/19 03:38:16;;;;;;;55.47;29.50;;;4.40;99.90;;;;;;5077127;28;20188;-59
2022/01/19 03:40:42;;;;;;;59.60;27.27;;;4.70;99.90;;;;;;5065076;28;20677;-60
2022/01/19 03:43:09;;;;;;;53.60;27.03;;;4.70;99.90;;;;;;5043462;28;20666;-60
2022/01/19 03:45:35;;;;;;;55.33;27.40;;;4.80;99.90;;;;;;5094097;28;20191;-59
2022/01/19 03:50:57;;;;;;;57.63;27.93;;;4.70;99.90;;;;;;5057721;28;20230;-59
2022/01/19 03:53:22;;;;;;;51.30;26.37;;;4.80;99.90;;;;;;5055264;28;20257;-59
2022/01/19 03:55:48;;;;;;;63.43;31.83;;;4.80;99.90;;;;;;5076462;28;20191;-59
2022/01/19 03:58:14;;;;;;;60.23;31.60;;;5.00;99.90;;;;;;5068386;28;20771;-59
2022/01/19 04:00:43;;;;;;;71.63;33.07;;;4.90;99.90;;;;;;5076550;28;20552;-63
2022/01/19 04:03:13;;;;;;;65.33;34.20;;;4.80;99.90;;;;;;5059545;28;20189;-59
2022/01/19 04:05:53;;;;;;;55.80;29.43;;;4.70;99.90;;;;;;5082250;28;20659;-59
2022/01/19 04:08:19;;;;;;;67.07;33.20;;;4.70;99.90;;;;;;5054046;28;20189;-59
2022/01/19 04:10:44;;;;;;;63.20;29.33;;;4.70;99.90;;;;;;5093641;28;20238;-63
2022/01/19 04:13:33;;;;;;;58.07;27.33;;;4.70;99.90;;;;;;5075875;28;20188;-60
2022/01/19 04:15:59;;;;;;;57.47;24.60;;;4.70;99.90;;;;;;5093629;28;20169;-63
2022/01/19 04:18:25;;;;;;;45.00;22.77;;;4.80;99.90;;;;;;5088125;28;20181;-59
2022/01/19 04:20:52;;;;;;;45.27;22.47;;;4.80;99.90;;;;;;5049453;28;20288;-59
2022/01/19 04:23:21;;;;;;;49.17;21.50;;;4.90;99.90;;;;;;5085528;28;20600;-59
2022/01/19 04:25:46;;;;;;;53.97;23.63;;;4.90;99.90;;;;;;5081437;28;20252;-59
2022/01/19 04:28:12;;;;;;;48.60;20.40;;;4.90;99.90;;;;;;5093816;28;20220;-59
2022/01/19 04:30:39;;;;;;;39.23;17.23;;;5.00;99.90;;;;;;5093930;28;20676;-59
2022/01/19 04:33:12;;;;;;;40.47;19.93;;;4.90;99.90;;;;;;5084625;28;20188;-59
2022/01/19 04:35:52;;;;;;;44.53;19.43;;;4.80;99.90;;;;;;5058941;28;20193;-60
2022/01/19 04:46:56;;;;;;;39.87;19.17;;;4.90;99.90;;;;;;5065760;28;20197;-60
2022/01/19 05:05:08;;;;;;;30.90;16.83;;;5.30;99.90;;;;;;5093019;28;20252;-59
2022/01/19 05:07:54;;;;;;;32.00;16.37;;;5.30;99.90;;;;;;5061122;28;20237;-60
2022/01/19 05:15:47;;;;;;;33.83;15.47;;;5.30;99.90;;;;;;5075017;28;20196;-61
2022/01/19 05:18:13;;;;;;;25.03;15.77;;;5.30;99.90;;;;;;5087823;28;20180;-60
2022/01/19 05:20:39;;;;;;;31.70;17.10;;;5.40;99.90;;;;;;5071606;28;20242;-60
2022/01/19 05:23:05;;;;;;;33.50;16.97;;;5.40;99.90;;;;;;5064938;28;20234;-60
2022/01/19 05:25:31;;;;;;;30.30;15.43;;;5.40;99.90;;;;;;5085467;28;20283;-64
2022/01/19 05:27:56;;;;;;;28.47;15.77;;;5.30;99.90;;;;;;5092712;28;20588;-65
2022/01/19 05:30:22;;;;;;;27.63;16.90;;;5.50;99.90;;;;;;5058270;28;20632;-64
2022/01/19 05:32:48;;;;;;;29.97;15.40;;;5.40;99.90;;;;;;5092986;28;20193;-64
2022/01/19 05:35:15;;;;;;;26.37;14.97;;;5.40;99.90;;;;;;5079856;28;20341;-65
2022/01/19 05:37:40;;;;;;;22.77;14.60;;;5.30;99.90;;;;;;5054500;28;20189;-63
2022/01/19 05:40:08;;;;;;;20.33;12.73;;;5.10;99.90;;;;;;5055634;28;20702;-63
2022/01/19 05:42:34;;;;;;;25.43;15.07;;;5.20;99.90;;;;;;5054967;28;20193;-69
2022/01/19 05:45:00;;;;;;;29.00;14.47;;;5.10;99.90;;;;;;5087383;28;20185;-64
2022/01/19 05:47:26;;;;;;;23.40;12.33;;;5.30;99.90;;;;;;5074714;28;20180;-69
2022/01/19 05:49:52;;;;;;;27.70;14.93;;;5.50;99.90;;;;;;5061929;28;20558;-65
2022/01/19 05:52:19;;;;;;;25.90;15.13;;;5.50;99.90;;;;;;5075195;28;20197;-63
2022/01/19 05:54:45;;;;;;;32.90;16.27;;;5.40;99.90;;;;;;5092267;28;20187;-64
2022/01/19 05:57:12;;;;;;;23.23;13.57;;;5.80;99.90;;;;;;5072185;28;20247;-64
2022/01/19 05:59:37;;;;;;;27.67;16.13;;;5.80;99.90;;;;;;5072603;28;20544;-68
2022/01/19 06:02:03;;;;;;;28.87;14.60;;;5.80;99.90;;;;;;5073851;28;20188;-65
2022/01/19 06:04:29;;;;;;;27.20;14.50;;;5.70;99.90;;;;;;5091894;28;20196;-64
2022/01/19 06:06:56;;;;;;;32.33;14.13;;;5.40;99.90;;;;;;5066147;28;20276;-64
2022/01/19 06:09:49;;;;;;;24.23;13.93;;;5.30;99.90;;;;;;5072807;28;20189;-64
2022/01/19 06:12:16;;;;;;;23.40;12.23;;;5.40;99.90;;;;;;5062632;28;20607;-64
2022/01/19 06:14:44;;;;;;;22.80;12.10;;;5.40;99.90;;;;;;5075482;28;20185;-67
2022/01/19 06:17:12;;;;;;;23.13;12.83;;;5.40;99.90;;;;;;5091050;28;20177;-64
2022/01/19 06:19:39;;;;;;;21.13;12.67;;;5.50;99.90;;;;;;5091248;28;20634;-64
2022/01/19 06:22:05;;;;;;;22.73;15.03;;;5.50;99.90;;;;;;5095226;28;20196;-64
2022/01/19 06:24:31;;;;;;;23.00;12.40;;;5.50;99.90;;;;;;5063703;28;20196;-64
2022/01/19 06:26:57;;;;;;;28.27;14.27;;;5.50;99.90;;;;;;5090139;28;20317;-64
2022/01/19 06:29:24;;;;;;;19.37;12.67;;;5.60;99.90;;;;;;5077752;28;20256;-65
2022/01/19 06:31:50;;;;;;;21.43;12.90;;;5.70;99.90;;;;;;5092637;28;20576;-64
2022/01/19 06:34:16;;;;;;;21.93;12.00;;;5.70;99.90;;;;;;5087942;28;20557;-65
2022/01/19 06:36:42;;;;;;;27.57;12.93;;;5.50;99.90;;;;;;5074512;28;20186;-64
2022/01/19 06:39:08;;;;;;;25.80;12.93;;;5.50;99.90;;;;;;5076455;28;20571;-65
2022/01/19 06:41:34;;;;;;;20.40;12.27;;;5.50;99.90;;;;;;5068470;28;20192;-64
2022/01/19 06:44:00;;;;;;;28.37;13.40;;;5.60;99.90;;;;;;5074756;28;20200;-65
2022/01/19 06:46:26;;;;;;;23.13;12.50;;;5.60;99.90;;;;;;5075640;28;20192;-65
2022/01/19 06:48:52;;;;;;;23.73;11.77;;;5.60;99.90;;;;;;5086052;28;20197;-64
2022/01/19 06:51:17;;;;;;;20.03;11.87;;;5.50;99.90;;;;;;5071858;28;20569;-64
2022/01/19 06:53:43;;;;;;;23.27;13.87;;;5.50;99.90;;;;;;5095634;28;20185;-65
2022/01/19 06:56:09;;;;;;;25.00;12.53;;;5.50;99.90;;;;;;5095431;28;20188;-64
2022/01/19 06:58:35;;;;;;;22.03;13.80;;;5.50;99.90;;;;;;5095220;28;20557;-64
2022/01/19 07:01:01;;;;;;;20.07;12.27;;;5.60;99.90;;;;;;5085568;28;20276;-64
2022/01/19 07:03:26;;;;;;;21.00;12.80;;;5.50;99.90;;;;;;5066308;28;20592;-64
2022/01/19 07:05:52;;;;;;;19.77;12.40;;;5.70;99.90;;;;;;5077522;28;20199;-64
2022/01/19 07:08:18;;;;;;;22.00;12.57;;;5.80;99.90;;;;;;5076944;28;20241;-64
2022/01/19 07:10:44;;;;;;;22.07;13.43;;;5.70;99.90;;;;;;5095109;28;20254;-65
2022/01/19 07:13:09;;;;;;;26.80;14.03;;;5.70;99.90;;;;;;5069247;28;20189;-64
2022/01/19 07:15:36;;;;;;;21.57;13.27;;;5.70;99.90;;;;;;5071434;28;20189;-68
2022/01/19 07:18:03;;;;;;;20.07;13.17;;;5.70;99.90;;;;;;5077169;28;20286;-64
2022/01/19 07:20:29;;;;;;;24.67;13.03;;;5.70;99.90;;;;;;5095175;28;20220;-64
2022/01/19 07:22:59;;;;;;;25.23;13.67;;;5.70;99.90;;;;;;5058977;28;20216;-64
2022/01/19 07:25:24;;;;;;;29.80;13.80;;;5.60;99.90;;;;;;5076723;28;20188;-65
2022/01/19 07:27:50;;;;;;;23.27;12.63;;;5.60;99.90;;;;;;5095103;28;20195;-64
2022/01/19 07:30:16;;;;;;;23.17;13.37;;;5.70;99.90;;;;;;5065966;28;20669;-64
2022/01/19 07:32:42;;;;;;;24.00;13.53;;;5.80;99.90;;;;;;5075342;28;20190;-64
2022/01/19 07:35:09;;;;;;;26.23;13.00;;;5.90;99.90;;;;;;5074937;28;20389;-64
2022/01/19 07:37:35;;;;;;;23.53;13.70;;;6.00;99.90;;;;;;5077098;28;20193;-64
2022/01/19 07:40:01;;;;;;;20.43;12.60;;;5.90;99.90;;;;;;5079013;28;20445;-64
2022/01/19 07:42:26;;;;;;;21.77;14.53;;;5.70;99.90;;;;;;5076142;28;20570;-64
2022/01/19 07:44:53;;;;;;;22.90;13.87;;;5.80;99.90;;;;;;5080611;28;20181;-64
2022/01/19 07:47:20;;;;;;;22.33;13.63;;;5.70;99.90;;;;;;5094564;28;20181;-64
2022/01/19 07:49:45;;;;;;;24.63;14.43;;;5.70;99.90;;;;;;5077144;28;20642;-64
2022/01/19 07:52:11;;;;;;;21.10;12.33;;;5.80;99.90;;;;;;5059149;28;20220;-64
2022/01/19 07:54:37;;;;;;;22.03;12.63;;;5.90;99.90;;;;;;5077833;28;20189;-64
2022/01/19 07:57:03;;;;;;;23.87;14.57;;;6.00;99.90;;;;;;5077310;28;20192;-64
2022/01/19 07:59:29;;;;;;;23.87;13.07;;;5.90;99.90;;;;;;5094443;28;20192;-64
2022/01/19 08:01:56;;;;;;;24.60;14.80;;;5.90;99.90;;;;;;5076250;28;20276;-64
2022/01/19 08:04:22;;;;;;;24.43;13.97;;;5.90;99.90;;;;;;5094526;28;20188;-64
2022/01/19 08:06:54;;;;;;;25.13;14.77;;;5.90;99.90;;;;;;5075893;28;20296;-64
2022/01/19 08:09:23;;;;;;;27.00;15.43;;;5.90;99.90;;;;;;5084503;28;20189;-64
2022/01/19 08:11:49;;;;;;;21.27;13.50;;;5.90;99.90;;;;;;5065841;28;20270;-64
2022/01/19 08:14:16;;;;;;;21.43;14.07;;;6.00;99.90;;;;;;5053276;28;20525;-64
2022/01/19 08:16:41;;;;;;;26.77;14.03;;;5.90;99.90;;;;;;5074848;28;20193;-64
2022/01/19 08:19:08;;;;;;;23.40;14.43;;;6.20;99.90;;;;;;5074957;28;20660;-64
2022/01/19 08:21:34;;;;;;;23.10;14.17;;;6.20;99.90;;;;;;5079396;28;20192;-64
2022/01/19 08:23:59;;;;;;;23.57;15.20;;;6.10;99.90;;;;;;5076244;28;20280;-66
2022/01/19 08:26:25;;;;;;;24.77;15.30;;;6.10;99.90;;;;;;5083055;28;20605;-64
2022/01/19 08:28:51;;;;;;;25.10;15.17;;;6.00;99.90;;;;;;5075589;28;20189;-64
2022/01/19 08:31:16;;;;;;;30.23;15.37;;;6.00;99.90;;;;;;5093645;28;20212;-64
2022/01/19 08:33:42;;;;;;;26.60;15.60;;;6.00;99.90;;;;;;5093778;28;20249;-64
2022/01/19 08:36:08;;;;;;;26.60;15.13;;;6.20;99.90;;;;;;5060416;28;20583;-64
2022/01/19 08:38:34;;;;;;;27.70;17.83;;;6.10;99.90;;;;;;5070937;28;20191;-63
2022/01/19 08:41:00;;;;;;;25.57;15.33;;;6.20;99.90;;;;;;5082849;28;20185;-64
2022/01/19 08:43:26;;;;;;;31.43;17.30;;;6.30;99.90;;;;;;5080734;28;20188;-64
2022/01/19 08:45:53;;;;;;;28.20;16.03;;;6.30;99.90;;;;;;5071913;28;20634;-64
2022/01/19 08:48:19;;;;;;;26.03;16.53;;;6.10;99.90;;;;;;5073966;28;20264;-64
2022/01/19 08:50:45;;;;;;;33.43;15.87;;;6.00;99.90;;;;;;5044231;28;20303;-68
2022/01/19 08:53:10;;;;;;;28.70;16.27;;;6.00;99.90;;;;;;5090425;28;20185;-64
2022/01/19 08:55:36;;;;;;;25.17;15.63;;;6.00;99.90;;;;;;5079868;28;20254;-64
2022/01/19 08:58:03;;;;;;;27.17;16.13;;;5.80;99.90;;;;;;5075093;28;20199;-69
2022/01/19 09:00:31;;;;;;;26.80;16.60;;;5.90;99.90;;;;;;5083564;28;20223;-64
2022/01/19 09:02:57;;;;;;;30.37;16.77;;;6.20;99.90;;;;;;5092821;28;20288;-64
2022/01/19 09:05:23;;;;;;;29.37;16.30;;;6.20;99.90;;;;;;5092783;28;20184;-64
2022/01/19 09:07:48;;;;;;;25.97;17.27;;;6.30;99.90;;;;;;5048949;28;20216;-65
2022/01/19 09:10:15;;;;;;;25.40;15.77;;;6.20;99.90;;;;;;5067711;28;20205;-64
2022/01/19 09:12:42;;;;;;;25.00;15.53;;;6.10;99.90;;;;;;5056024;28;20207;-64
2022/01/19 09:15:10;;;;;;;28.30;15.93;;;6.00;99.90;;;;;;5055768;28;20228;-64
2022/01/19 09:17:36;;;;;;;29.17;16.33;;;6.10;99.90;;;;;;5066032;28;20185;-64
2022/01/19 09:20:05;;;;;;;35.00;19.10;;;6.40;99.90;;;;;;5077727;28;20208;-64
2022/01/19 09:22:31;;;;;;;31.27;17.33;;;6.40;99.90;;;;;;5074313;28;20549;-64
2022/01/19 09:24:57;;;;;;;33.63;19.33;;;6.10;99.90;;;;;;5092149;28;20216;-65
2022/01/19 09:27:22;;;;;;;34.23;16.70;;;6.10;99.90;;;;;;5093393;28;20646;-64
2022/01/19 09:29:48;;;;;;;23.43;13.90;;;6.10;99.90;;;;;;5074210;28;20189;-65
2022/01/19 09:32:14;;;;;;;27.83;14.10;;;6.30;99.90;;;;;;5079475;28;20220;-64
2022/01/19 09:34:43;;;;;;;27.40;14.07;;;6.40;99.90;;;;;;5075693;28;20192;-64
2022/01/19 09:37:09;;;;;;;20.23;13.97;;;6.50;99.90;;;;;;5092447;28;20181;-64
2022/01/19 09:39:35;;;;;;;25.57;14.73;;;6.50;99.90;;;;;;5092552;28;20212;-64
2022/01/19 09:42:01;;;;;;;25.83;15.77;;;6.50;99.90;;;;;;5057472;28;20641;-64
2022/01/19 09:44:29;;;;;;;28.33;16.77;;;6.50;99.90;;;;;;5073470;28;20242;-65
2022/01/19 09:46:55;;;;;;;28.07;16.00;;;6.50;99.90;;;;;;5064256;28;20212;-63
2022/01/19 09:49:22;;;;;;;28.53;15.83;;;6.50;99.90;;;;;;5072899;28;20177;-64
2022/01/19 09:51:50;;;;;;;27.77;16.07;;;6.60;99.90;;;;;;5073280;28;20220;-64
2022/01/19 09:54:22;;;;;;;28.13;15.73;;;6.50;99.90;;;;;;5073135;28;20554;-64
2022/01/19 09:56:48;;;;;;;27.87;14.60;;;6.40;99.90;;;;;;5073481;28;20185;-64
2022/01/19 09:59:15;;;;;;;26.97;16.33;;;6.40;99.90;;;;;;5071795;28;20523;-64
2022/01/19 10:01:54;;;;;;;25.30;16.80;;;6.40;99.90;;;;;;5091925;28;20650;-63
2022/01/19 10:04:26;;;;;;;26.60;16.00;;;6.50;99.90;;;;;;5091493;28;20520;-66
2022/01/19 10:07:10;;;;;;;28.70;15.90;;;6.40;99.90;;;;;;5072804;28;20690;-64
2022/01/19 10:10:01;;;;;;;26.53;15.13;;;6.40;99.90;;;;;;5082302;28;20193;-64
2022/01/19 10:18:08;;;;;;;32.80;17.07;;;6.40;99.90;;;;;;5076524;28;20199;-65
2022/01/19 10:20:34;;;;;;;28.53;15.73;;;6.40;99.90;;;;;;5081455;28;20223;-64
2022/01/19 10:22:59;;;;;;;38.83;19.03;;;6.30;99.90;;;;;;5092216;28;20547;-63
2022/01/19 10:25:49;;;;;;;32.97;17.13;;;6.30;99.90;;;;;;5080059;28;20189;-64
2022/01/19 10:28:14;;;;;;;30.30;18.03;;;6.30;99.90;;;;;;5055666;28;20534;-63
2022/01/19 10:30:40;;;;;;;34.30;18.00;;;6.30;99.90;;;;;;5055170;28;20209;-64
2022/01/19 10:33:06;;;;;;;33.67;17.60;;;6.30;99.90;;;;;;5070445;28;20204;-63
2022/01/19 10:35:37;;;;;;;32.93;17.07;;;6.30;99.90;;;;;;5057072;28;20188;-64
2022/01/19 10:38:15;;;;;;;31.57;17.43;;;6.10;99.90;;;;;;5091607;28;20267;-63
2022/01/19 10:41:04;;;;;;;35.33;17.97;;;6.20;99.90;;;;;;5092013;28;20188;-64
2022/01/19 10:43:37;;;;;;;32.17;17.00;;;6.20;99.90;;;;;;5091056;28;20192;-68
2022/01/19 10:46:30;;;;;;;27.77;17.30;;;6.30;99.90;;;;;;5073441;28;20170;-64
2022/01/19 10:49:00;;;;;;;28.43;16.83;;;6.40;99.90;;;;;;5059907;28;20533;-63
2022/01/19 10:51:31;;;;;;;30.63;17.60;;;6.60;99.90;;;;;;5072560;28;20201;-64
2022/01/19 10:54:16;;;;;;;30.73;17.37;;;6.70;99.90;;;;;;5090204;28;20181;-64
2022/01/19 10:56:44;;;;;;;28.70;17.17;;;6.80;99.90;;;;;;5054920;28;20185;-64
2022/01/19 10:59:12;;;;;;;31.10;18.13;;;6.80;99.90;;;;;;5071882;28;20184;-64
2022/01/19 11:01:54;;;;;;;34.73;17.83;;;6.80;99.90;;;;;;5057685;28;20661;-64
2022/01/19 11:04:34;;;;;;;28.50;16.67;;;6.70;99.90;;;;;;5087033;28;20169;-64
2022/01/19 11:07:02;;;;;;;32.40;16.93;;;6.50;99.90;;;;;;5072507;28;20540;-64
2022/01/19 11:09:30;;;;;;;30.60;17.30;;;6.60;99.90;;;;;;5075926;28;20197;-64
2022/01/19 11:12:06;;;;;;;28.93;16.43;;;6.60;99.90;;;;;;5074074;28;20312;-64
2022/01/19 11:14:35;;;;;;;29.40;16.57;;;6.60;99.90;;;;;;5079506;28;20190;-64
2022/01/19 11:17:01;;;;;;;30.37;17.63;;;6.50;99.90;;;;;;5076188;28;20215;-64
2022/01/19 11:19:27;;;;;;;29.40;15.43;;;6.50;99.90;;;;;;5051488;28;20342;-64
2022/01/19 11:22:31;;;;;;;30.20;17.07;;;6.40;99.90;;;;;;5076043;28;20224;-64
2022/01/19 11:25:17;;;;;;;31.30;17.33;;;6.40;99.90;;;;;;5075840;28;20188;-64
2022/01/19 11:27:45;;;;;;;29.10;16.40;;;6.50;99.90;;;;;;5070634;28;20250;-64
2022/01/19 11:30:26;;;;;;;28.57;16.00;;;6.50;99.90;;;;;;5062231;28;20204;-63
2022/01/19 11:33:26;;;;;;;31.53;18.60;;;6.50;99.90;;;;;;5093014;28;20169;-64
2022/01/19 11:36:20;;;;;;;30.90;17.90;;;6.70;99.90;;;;;;5086390;28;20177;-64
2022/01/19 11:39:06;;;;;;;29.57;16.80;;;6.80;99.90;;;;;;5067287;28;20193;-64
2022/01/19 11:41:37;;;;;;;37.13;19.00;;;6.70;99.90;;;;;;5089565;28;20188;-68
2022/01/19 11:44:05;;;;;;;31.20;17.87;;;6.60;99.90;;;;;;5077161;28;20216;-63
2022/01/19 11:46:39;;;;;;;29.83;16.40;;;6.60;99.90;;;;;;5094867;28;20264;-64
2022/01/19 11:49:08;;;;;;;28.20;18.00;;;6.50;99.90;;;;;;5095357;28;20176;-64
2022/01/19 11:51:42;;;;;;;34.53;17.70;;;6.70;99.90;;;;;;5064191;28;20223;-63
2022/01/19 11:54:08;;;;;;;34.47;18.90;;;6.70;99.90;;;;;;5094940;28;20176;-63
2022/01/19 11:56:59;;;;;;;31.70;18.20;;;6.70;99.90;;;;;;5082942;28;20185;-63
2022/01/19 11:59:30;;;;;;;35.83;18.63;;;6.60;99.90;;;;;;5091564;28;20640;-64
2022/01/19 12:02:21;;;;;;;31.70;17.60;;;6.60;99.90;;;;;;5094083;28;20185;-64
2022/01/19 12:04:54;;;;;;;32.93;17.37;;;6.70;99.90;;;;;;5083138;28;20224;-63
2022/01/19 12:07:43;;;;;;;36.00;19.13;;;6.80;99.90;;;;;;5094117;28;20181;-64
2022/01/19 12:10:20;;;;;;;30.57;17.97;;;7.00;99.90;;;;;;5082736;28;20300;-66
2022/01/19 12:14:11;;;;;;;35.10;18.13;;;7.20;99.90;;;;;;5095376;28;20193;-66
2022/01/19 12:16:17;;;;;;;30.50;19.43;;;7.00;99.90;;;;;;5066370;28;20200;-64
2022/01/19 12:18:50;;;;;;;33.00;17.67;;;7.00;99.90;;;;;;5073616;28;20185;-64
2022/01/19 12:21:38;;;;;;;36.63;19.83;;;7.10;99.90;;;;;;5074694;28;20177;-64
2022/01/19 12:24:26;;;;;;;35.40;20.30;;;7.20;99.90;;;;;;5082543;28;20938;-64
2022/01/19 12:27:02;;;;;;;36.80;19.43;;;7.40;99.90;;;;;;5075932;28;20181;-64
2022/01/19 12:29:34;;;;;;;37.07;18.97;;;7.50;99.90;;;;;;5076128;28;20230;-68
2022/01/19 12:32:08;;;;;;;32.67;19.50;;;7.60;99.90;;;;;;5074318;28;20217;-65
2022/01/19 12:34:51;;;;;;;31.33;17.67;;;7.60;99.90;;;;;;5079753;28;20195;-65
2022/01/19 12:37:48;;;;;;;33.07;18.97;;;7.50;99.90;;;;;;5068155;28;20209;-65
2022/01/19 12:40:21;;;;;;;35.67;19.20;;;7.40;99.90;;;;;;5080860;28;20685;-64
2022/01/19 12:42:56;;;;;;;39.07;20.17;;;7.10;99.90;;;;;;5091592;28;20187;-65
2022/01/19 12:45:35;;;;;;;34.43;20.50;;;7.10;99.90;;;;;;5082757;28;20200;-65
2022/01/19 12:48:06;;;;;;;32.93;17.53;;;7.20;99.90;;;;;;5065212;28;20187;-65
2022/01/19 12:50:42;;;;;;;33.90;19.23;;;7.30;99.90;;;;;;5074540;28;20208;-65
2022/01/19 12:53:20;;;;;;;36.17;17.97;;;7.30;99.90;;;;;;5071385;28;20203;-65
2022/01/19 12:55:50;;;;;;;41.37;21.33;;;7.40;99.90;;;;;;5074138;28;20174;-65
2022/01/19 12:58:22;;;;;;;33.87;19.03;;;7.60;99.90;;;;;;5082365;28;20183;-65
2022/01/19 13:00:54;;;;;;;34.10;18.70;;;7.60;99.90;;;;;;5075443;28;20185;-65
2022/01/19 13:03:34;;;;;;;34.07;20.23;;;7.50;99.90;;;;;;5092085;28;20180;-66
2022/01/19 13:06:07;;;;;;;35.97;21.23;;;7.40;99.90;;;;;;5092456;28;20207;-63
2022/01/19 13:08:36;;;;;;;35.07;19.87;;;7.50;99.90;;;;;;5072108;28;20173;-65
2022/01/19 13:11:17;;;;;;;35.60;18.23;;;7.40;99.90;;;;;;5080935;28;20248;-63
2022/01/19 13:14:00;;;;;;;33.00;18.27;;;7.20;99.90;;;;;;5091350;28;20272;-63
2022/01/19 13:16:36;;;;;;;31.93;19.50;;;7.10;99.90;;;;;;5092866;28;20538;-64
2022/01/19 13:19:20;;;;;;;43.53;20.67;;;7.00;99.90;;;;;;5092568;28;20203;-64
2022/01/19 13:21:52;;;;;;;38.77;20.30;;;7.00;99.90;;;;;;5092461;28;20645;-64
2022/01/19 13:24:26;;;;;;;35.87;20.63;;;7.10;99.90;;;;;;5093154;28;20636;-65
2022/01/19 13:26:57;;;;;;;36.47;19.47;;;7.10;99.90;;;;;;5074572;28;20313;-64
2022/01/19 13:29:34;;;;;;;35.43;19.87;;;7.20;99.90;;;;;;5092159;28;20215;-64
2022/01/19 13:31:59;;;;;;;38.03;21.00;;;7.20;99.90;;;;;;5079269;28;20208;-64
2022/01/19 13:34:26;;;;;;;37.20;20.57;;;7.20;99.90;;;;;;5073646;28;20190;-63
2022/01/19 13:37:01;;;;;;;40.87;22.73;;;7.20;99.90;;;;;;5089801;28;20181;-65
2022/01/19 13:39:30;;;;;;;36.43;19.57;;;7.20;99.90;;;;;;5074750;28;22107;-64
2022/01/19 13:41:58;;;;;;;36.90;19.93;;;7.20;99.90;;;;;;5076395;28;20189;-64
2022/01/19 13:44:32;;;;;;;36.47;20.83;;;7.20;99.90;;;;;;5070223;28;20275;-63
2022/01/19 13:47:14;;;;;;;38.80;21.27;;;7.30;99.90;;;;;;5075058;28;20287;-63
2022/01/19 13:49:41;;;;;;;35.93;21.33;;;7.40;99.90;;;;;;5092624;28;20212;-64
2022/01/19 13:52:09;;;;;;;41.13;20.37;;;7.40;99.90;;;;;;5065039;28;20228;-64
2022/01/19 13:54:37;;;;;;;37.70;20.97;;;7.30;99.90;;;;;;5088339;28;20184;-64
2022/01/19 13:57:03;;;;;;;38.10;19.80;;;7.10;99.90;;;;;;5068946;28;20213;-64
2022/01/19 13:59:29;;;;;;;35.50;20.60;;;7.00;99.90;;;;;;5073049;28;20185;-64
2022/01/19 14:02:00;;;;;;;38.33;21.47;;;6.90;99.90;;;;;;5083142;28;20238;-64
2022/01/19 14:04:28;;;;;;;39.60;20.40;;;6.80;99.90;;;;;;5093167;28;20181;-64
2022/01/19 14:07:05;;;;;;;37.73;20.63;;;6.80;99.90;;;;;;5075525;28;20550;-65
2022/01/19 14:09:32;;;;;;;36.13;20.27;;;7.00;99.90;;;;;;5083724;28;20234;-64
2022/01/19 14:12:05;;;;;;;41.17;22.93;;;7.00;99.90;;;;;;5085081;28;20230;-64
2022/01/19 14:14:37;;;;;;;44.00;21.13;;;7.00;99.90;;;;;;5089651;28;20703;-64